Time;durP1;ratioP1;P1;durP2;ratioP2;P2;SDS_P1;SDS_P2;PMS_P1;PMS_P2;Temp;Humidity;BMP_temperature;BMP_pressure;BME280_temperature;BME280_humidity;BME280_pressure;Samples;Min_cycle;Max_cycle;Signal;HPM_P1;HPM_P2
2023/05/18 00:02:05;;;;;;;;;;;10.80;53.10;;;6.29;85.66;95829.47;5010246;28;20724;-54
2023/05/18 00:04:35;;;;;;;;;;;10.80;53.20;;;6.29;85.57;95826.00;5011478;28;19975;-53
2023/05/18 00:07:03;;;;;;;;;;;10.80;53.30;;;6.28;85.88;95814.63;5010160;28;19912;-54
2023/05/18 00:09:32;;;;;;;;;;;10.80;53.30;;;6.25;86.30;95818.53;5011384;28;19909;-53
2023/05/18 00:11:59;;;;;;;;;;;10.80;53.40;;;6.24;86.12;95814.28;5010618;28;20004;-53
2023/05/18 00:14:26;;;;;;;;;;;10.80;53.50;;;6.22;86.36;95805.78;5011367;28;19909;-48
2023/05/18 00:16:53;;;;;;;;;;;10.70;53.50;;;6.22;86.39;95805.78;5010040;28;20058;-49
2023/05/18 00:19:23;;;;;;;;;;;10.70;53.60;;;6.20;86.79;95805.19;5011188;28;20268;-51
2023/05/18 00:21:51;;;;;;;;;;;10.80;53.70;;;6.16;86.89;95801.41;5011293;28;19943;-50
2023/05/18 00:24:18;;;;;;;;;;;10.70;53.70;;;6.13;87.28;95796.56;5010733;28;19917;-50
2023/05/18 00:26:46;;;;;;;;;;;10.70;53.80;;;6.13;87.29;95793.94;5010899;28;20015;-49
2023/05/18 00:29:12;;;;;;;;;;;10.70;53.80;;;6.13;87.33;95793.94;5009671;28;19909;-48
2023/05/18 00:31:39;;;;;;;;;;;10.70;53.90;;;6.11;87.36;95790.72;5010938;28;20526;-49
2023/05/18 00:34:06;;;;;;;;;;;10.60;54.00;;;6.11;87.50;95784.59;5011286;28;19913;-49
2023/05/18 00:36:33;;;;;;;;;;;10.60;54.10;;;6.09;87.85;95784.06;5009784;28;20383;-53
2023/05/18 00:39:00;;;;;;;;;;;10.60;54.20;;;6.05;88.07;95786.34;5010866;28;19909;-54
2023/05/18 00:41:27;;;;;;;;;;;10.60;54.20;;;6.06;88.19;95779.22;5005419;28;19912;-48
2023/05/18 00:43:54;;;;;;;;;;;10.60;54.40;;;6.05;88.07;95769.66;5011098;28;19909;-48
2023/05/18 00:46:21;;;;;;;;;;;10.60;54.40;;;6.05;88.38;95773.13;5010973;28;19913;-50
2023/05/18 00:48:50;;;;;;;;;;;10.60;54.50;;;6.05;88.17;95773.13;5010072;28;19920;-54
2023/05/18 00:51:24;;;;;;;;;;;10.60;54.60;;;6.02;88.65;95769.09;5011264;28;19917;-56
2023/05/18 00:53:52;;;;;;;;;;;10.50;54.60;;;6.02;88.48;95773.59;5001867;28;20372;-52
2023/05/18 00:56:22;;;;;;;;;;;10.50;54.60;;;6.00;88.96;95770.38;5010216;28;19909;-50
2023/05/18 00:58:54;;;;;;;;;;;10.50;54.70;;;5.97;89.36;95770.81;5014030;28;19920;-57
2023/05/18 01:01:30;;;;;;;;;;;10.50;54.80;;;5.97;88.98;95758.41;5006294;28;20314;-52
2023/05/18 01:04:01;;;;;;;;;;;10.50;54.80;;;6.00;88.77;95767.72;5014882;28;19916;-54
2023/05/18 01:06:34;;;;;;;;;;;10.50;54.90;;;5.97;89.10;95766.34;5013717;28;20051;-56
2023/05/18 01:09:03;;;;;;;;;;;10.50;54.90;;;5.95;89.56;95749.91;5014347;28;19909;-52
2023/05/18 01:11:59;;;;;;;;;;;10.50;55.00;;;5.94;89.81;95758.06;5029356;28;19913;-51
2023/05/18 01:14:53;;;;;;;;;;;10.50;55.10;;;5.91;89.80;95751.38;5017929;28;20003;-52
2023/05/18 01:18:05;;;;;;;;;;;10.50;55.20;;;5.91;89.86;95763.78;5013727;28;19913;-53
2023/05/18 01:20:32;;;;;;;;;;;10.40;55.30;;;5.90;90.13;95755.06;5014339;28;19909;-49
2023/05/18 01:23:40;;;;;;;;;;;10.50;55.50;;;5.92;89.97;95755.63;5015399;28;20475;-48
2023/05/18 01:26:28;;;;;;;;;;;10.50;55.60;;;5.88;90.41;95754.47;5029731;28;20074;-53
2023/05/18 01:29:01;;;;;;;;;;;10.40;55.60;;;5.89;90.26;95750.81;5014843;28;19909;-54
2023/05/18 01:31:28;;;;;;;;;;;10.40;56.30;;;5.88;90.37;95746.53;5020147;28;19913;-53
2023/05/18 01:33:54;;;;;;;;;;;10.40;55.70;;;5.87;90.39;95747.59;5014461;28;19909;-53
2023/05/18 01:36:20;;;;;;;;;;;10.40;55.70;;;5.87;90.38;95739.66;5013252;28;19924;-50
2023/05/18 01:38:47;;;;;;;;;;;10.40;55.80;;;5.89;90.17;95739.41;5014359;28;19909;-52
2023/05/18 01:41:29;;;;;;;;;;;10.40;55.90;;;5.90;90.21;95744.47;5028708;28;19909;-49
2023/05/18 01:44:32;;;;;;;;;;;10.40;56.00;;;5.88;90.43;95729.88;5014318;28;19913;-48
2023/05/18 01:47:00;;;;;;;;;;;10.40;56.00;;;5.84;90.64;95740.13;5001744;28;20381;-52
2023/05/18 01:49:58;;;;;;;;;;;10.40;56.00;;;5.84;90.90;95742.75;5028896;28;19909;-49
2023/05/18 01:52:41;;;;;;;;;;;10.40;56.10;;;5.84;90.48;95745.41;5009828;28;20047;-54
2023/05/18 01:55:10;;;;;;;;;;;10.40;56.10;;;5.82;90.49;95736.88;5028116;28;20279;-50
2023/05/18 01:57:40;;;;;;;;;;;10.40;56.20;;;5.80;91.10;95745.06;5029059;28;19931;-50
2023/05/18 02:00:08;;;;;;;;;;;10.40;56.20;;;5.81;91.15;95735.28;5027620;28;20015;-51
2023/05/18 02:02:35;;;;;;;;;;;10.30;56.10;;;5.76;91.28;95728.03;5012484;28;19948;-49
2023/05/18 02:05:01;;;;;;;;;;;10.30;56.80;;;5.72;91.27;95723.44;5012765;28;20792;-48
2023/05/18 02:07:27;;;;;;;;;;;10.30;56.20;;;5.71;91.34;95727.94;5013267;28;19912;-48
2023/05/18 02:09:53;;;;;;;;;;;10.30;56.30;;;5.73;91.17;95722.41;5027522;28;19923;-49
2023/05/18 02:12:19;;;;;;;;;;;10.30;56.40;;;5.73;91.18;95720.56;5020212;28;19931;-49
2023/05/18 02:14:44;;;;;;;;;;;10.30;56.50;;;5.68;91.32;95725.75;5014162;28;20366;-49
2023/05/18 02:17:10;;;;;;;;;;;10.30;56.60;;;5.69;91.37;95722.06;5015891;28;19916;-48
2023/05/18 02:19:38;;;;;;;;;;;10.30;56.60;;;5.69;91.41;95718.63;5021299;28;19982;-49
2023/05/18 02:22:06;;;;;;;;;;;10.30;56.60;;;5.64;91.52;95721.97;5012279;28;19912;-48
2023/05/18 02:24:35;;;;;;;;;;;10.30;56.60;;;5.66;91.58;95725.16;5012364;28;19909;-48
2023/05/18 02:27:00;;;;;;;;;;;10.20;56.60;;;5.63;91.75;95715.06;5013300;28;19963;-49
2023/05/18 02:29:26;;;;;;;;;;;10.30;56.70;;;5.60;92.10;95726.09;5012277;28;19952;-49
2023/05/18 02:31:52;;;;;;;;;;;10.20;56.70;;;5.61;92.11;95725.06;5013367;28;19970;-53
2023/05/18 02:34:18;;;;;;;;;;;10.20;56.80;;;5.57;91.86;95722.06;5013587;28;19909;-50
2023/05/18 02:36:45;;;;;;;;;;;10.20;56.90;;;5.57;92.06;95723.91;5011893;28;20395;-51
2023/05/18 02:39:11;;;;;;;;;;;10.20;56.90;;;5.56;92.03;95720.44;5012896;28;19958;-49
2023/05/18 02:41:37;;;;;;;;;;;10.10;56.80;;;5.52;92.22;95710.59;5007512;28;19961;-49
2023/05/18 02:44:04;;;;;;;;;;;10.10;56.90;;;5.53;92.11;95715.63;5006469;28;20008;-48
2023/05/18 02:46:31;;;;;;;;;;;10.10;56.90;;;5.55;91.95;95713.56;5013000;28;19944;-50
2023/05/18 02:48:57;;;;;;;;;;;10.10;57.00;;;5.56;91.61;95709.88;5006882;28;19927;-49
2023/05/18 02:51:24;;;;;;;;;;;10.10;57.00;;;5.54;92.28;95709.28;5013103;28;19916;-49
2023/05/18 02:53:50;;;;;;;;;;;10.10;57.00;;;5.50;92.54;95710.00;5010575;28;19966;-50
2023/05/18 02:56:17;;;;;;;;;;;10.10;57.00;;;5.48;92.70;95701.50;5013070;28;20361;-49
2023/05/18 02:58:43;;;;;;;;;;;10.10;57.10;;;5.45;92.63;95708.06;5012338;28;19913;-49
2023/05/18 03:01:13;;;;;;;;;;;10.10;57.20;;;5.43;93.19;95704.03;5011836;28;19913;-53
2023/05/18 03:03:41;;;;;;;;;;;10.00;57.10;;;5.39;93.15;95719.53;5012576;28;20356;-48
2023/05/18 03:06:07;;;;;;;;;;;10.00;57.20;;;5.42;93.35;95712.97;5012172;28;20276;-49
2023/05/18 03:08:35;;;;;;;;;;;10.00;57.30;;;5.36;93.41;95720.00;5012313;28;20352;-48
2023/05/18 03:11:02;;;;;;;;;;;10.00;57.30;;;5.34;93.54;95704.34;5011857;28;19909;-48
2023/05/18 03:13:27;;;;;;;;;;;10.00;57.40;;;5.35;93.52;95715.72;5012976;28;19916;-49
2023/05/18 03:15:55;;;;;;;;;;;9.90;57.40;;;5.34;93.52;95720.22;5012646;28;19909;-50
2023/05/18 03:18:21;;;;;;;;;;;10.00;57.50;;;5.32;93.74;95701.13;5011049;28;19913;-50
2023/05/18 03:20:50;;;;;;;;;;;9.90;57.50;;;5.29;94.08;95711.34;5012494;28;20552;-51
2023/05/18 03:23:18;;;;;;;;;;;9.90;57.50;;;5.26;94.43;95706.53;5012429;28;19912;-51
2023/05/18 03:25:44;;;;;;;;;;;9.90;57.60;;;5.23;94.58;95717.53;5012715;28;20413;-49
2023/05/18 03:28:10;;;;;;;;;;;9.90;57.70;;;5.21;94.94;95712.50;5012031;28;20268;-52
2023/05/18 03:30:36;;;;;;;;;;;9.80;57.70;;;5.19;95.00;95713.75;5011360;28;19936;-48
2023/05/18 03:33:02;;;;;;;;;;;9.80;57.80;;;5.19;94.99;95716.41;5012199;28;19955;-51
2023/05/18 03:35:28;;;;;;;;;;;9.80;57.80;;;5.17;94.93;95714.00;5010876;28;19913;-50
2023/05/18 03:37:55;;;;;;;;;;;9.80;57.90;;;5.12;95.16;95716.50;5012030;28;19921;-54
2023/05/18 03:40:21;;;;;;;;;;;9.70;57.90;;;5.07;95.61;95697.88;5012382;28;20367;-52
2023/05/18 03:42:47;;;;;;;;;;;9.70;57.90;;;5.05;95.87;95707.88;5011037;28;19971;-51
2023/05/18 03:45:13;;;;;;;;;;;9.70;58.00;;;5.06;95.63;95709.47;5011939;28;19909;-56
2023/05/18 03:47:39;;;;;;;;;;;9.70;58.10;;;5.06;95.43;95705.00;5015067;28;19913;-55
2023/05/18 03:50:07;;;;;;;;;;;9.70;58.20;;;5.05;95.36;95706.03;5011687;28;20322;-54
2023/05/18 03:52:33;;;;;;;;;;;9.70;58.20;;;5.07;95.38;95708.44;5012053;28;19909;-55
2023/05/18 03:55:00;;;;;;;;;;;9.70;58.30;;;5.08;94.75;95702.94;5011044;28;20359;-50
2023/05/18 03:57:28;;;;;;;;;;;9.70;58.40;;;5.10;94.68;95705.34;5011617;28;19979;-49
2023/05/18 03:59:56;;;;;;;;;;;9.70;58.50;;;5.09;94.27;95703.75;5009388;28;26642;-52
2023/05/18 04:02:23;;;;;;;;;;;9.70;58.50;;;5.14;94.31;95697.78;5011400;28;19909;-53
2023/05/18 04:04:48;;;;;;;;;;;9.70;58.60;;;5.14;94.35;95708.34;5011565;28;19909;-54
2023/05/18 04:07:15;;;;;;;;;;;9.70;58.60;;;5.15;94.01;95708.13;5011195;28;19916;-52
2023/05/18 04:09:42;;;;;;;;;;;9.80;58.60;;;5.18;93.34;95710.31;5011397;28;20275;-52
2023/05/18 04:12:09;;;;;;;;;;;9.80;59.20;;;5.19;93.22;95709.28;5004977;28;19909;-50
2023/05/18 04:14:35;;;;;;;;;;;9.80;58.60;;;5.19;93.07;95717.19;5011482;28;19909;-49
2023/05/18 04:17:05;;;;;;;;;;;9.80;58.90;;;5.21;92.88;95715.13;5010246;28;19913;-52
2023/05/18 04:19:33;;;;;;;;;;;9.80;58.50;;;5.23;92.43;95717.53;5011387;28;20403;-51
2023/05/18 04:22:03;;;;;;;;;;;9.80;58.50;;;5.25;91.62;95720.78;5011495;28;19913;-48
2023/05/18 04:24:31;;;;;;;;;;;9.90;58.60;;;5.28;91.98;95730.88;5010418;28;19909;-52
2023/05/18 04:27:00;;;;;;;;;;;9.90;58.50;;;5.26;91.90;95730.28;5011176;28;19962;-52
2023/05/18 04:29:27;;;;;;;;;;;9.90;58.40;;;5.27;91.75;95729.28;5009728;28;19909;-52
2023/05/18 04:31:59;;;;;;;;;;;10.00;58.40;;;5.28;91.51;95722.97;5010941;28;19909;-52
2023/05/18 04:34:30;;;;;;;;;;;10.00;58.40;;;5.36;90.92;95733.19;5026406;28;19915;-49
2023/05/18 04:36:59;;;;;;;;;;;10.00;58.40;;;5.44;90.73;95735.50;5019072;28;20326;-50
2023/05/18 04:39:26;;;;;;;;;;;10.10;58.40;;;5.52;89.92;95739.66;5010771;28;19937;-52
2023/05/18 04:41:58;;;;;;;;;;;10.10;58.90;;;5.64;89.15;95737.00;5002410;28;19910;-49
2023/05/18 04:44:26;;;;;;;;;;;10.20;58.20;;;5.73;89.05;95743.56;5007796;28;19909;-52
2023/05/18 04:46:53;;;;;;;;;;;10.30;58.10;;;5.85;88.16;95743.56;5011144;28;19909;-50
2023/05/18 04:49:20;;;;;;;;;;;10.50;58.00;;;5.93;87.32;95748.53;5010879;28;19909;-48
2023/05/18 04:51:54;;;;;;;;;;;10.60;57.90;;;5.96;86.79;95754.16;5011226;28;19913;-51
2023/05/18 04:54:29;;;;;;;;;;;10.70;57.70;;;6.11;86.38;95747.59;5016915;28;19974;-51
2023/05/18 04:56:56;;;;;;;;;;;10.90;57.60;;;6.22;85.93;95771.38;5010958;28;19920;-48
2023/05/18 04:59:27;;;;;;;;;;;11.00;57.50;;;6.32;85.68;95764.69;5013397;28;19908;-48
2023/05/18 05:01:54;;;;;;;;;;;11.10;57.30;;;6.38;85.67;95769.06;5015052;28;19986;-51
2023/05/18 05:04:23;;;;;;;;;;;11.20;57.10;;;6.31;85.41;95763.09;5011372;28;19909;-51
2023/05/18 05:06:48;;;;;;;;;;;11.30;57.10;;;6.34;85.67;95766.09;5009967;28;20347;-50
2023/05/18 05:09:14;;;;;;;;;;;11.40;56.90;;;6.24;86.36;95761.38;5010745;28;19987;-56
2023/05/18 05:11:41;;;;;;;;;;;11.40;56.80;;;6.26;85.96;95758.50;5010307;28;19916;-51
2023/05/18 05:14:07;;;;;;;;;;;11.40;56.80;;;6.22;86.59;95757.34;5011184;28;19917;-49
2023/05/18 05:16:33;;;;;;;;;;;11.40;56.70;;;6.25;85.89;95762.97;5010909;28;19919;-54
2023/05/18 05:19:00;;;;;;;;;;;11.40;56.60;;;6.33;86.16;95755.72;5009389;28;19920;-50
2023/05/18 05:21:25;;;;;;;;;;;11.50;57.20;;;6.33;86.00;95758.34;5011096;28;20382;-51
2023/05/18 05:23:51;;;;;;;;;;;11.50;56.60;;;6.25;85.69;95760.34;5024734;28;19909;-49
2023/05/18 05:26:19;;;;;;;;;;;11.50;56.60;;;6.25;85.56;95755.03;5011033;28;19925;-49
2023/05/18 05:28:45;;;;;;;;;;;11.40;56.50;;;6.17;86.62;95754.59;5010061;28;19924;-52
2023/05/18 05:31:10;;;;;;;;;;;11.40;56.50;;;6.20;86.58;95762.88;5009784;28;19923;-48
2023/05/18 05:33:37;;;;;;;;;;;11.40;57.10;;;6.17;86.31;95755.41;5010639;28;20007;-49
2023/05/18 05:36:07;;;;;;;;;;;11.40;56.50;;;6.23;86.68;95759.75;5009198;28;19917;-52
2023/05/18 05:38:33;;;;;;;;;;;11.40;56.50;;;6.27;86.30;95754.81;5010643;28;19924;-51
2023/05/18 05:40:59;;;;;;;;;;;11.40;56.50;;;6.22;86.17;95752.88;5010728;28;19936;-54
2023/05/18 05:43:25;;;;;;;;;;;11.40;57.10;;;6.32;86.40;95762.84;5023897;28;19958;-51
2023/05/18 05:45:51;;;;;;;;;;;11.40;56.50;;;6.44;86.73;95757.53;5014005;28;20322;-50
2023/05/18 05:48:17;;;;;;;;;;;11.50;56.50;;;6.42;86.17;95768.34;5012795;28;19956;-54
2023/05/18 05:50:43;;;;;;;;;;;11.60;56.50;;;6.51;85.45;95765.34;5014099;28;20000;-50
2023/05/18 05:53:08;;;;;;;;;;;11.70;56.40;;;6.56;85.04;95766.25;5013023;28;19914;-49
2023/05/18 05:55:39;;;;;;;;;;;11.80;56.40;;;6.67;85.34;95773.34;5014099;28;19924;-52
2023/05/18 05:58:06;;;;;;;;;;;11.90;56.30;;;6.86;84.61;95765.22;5013729;28;20330;-51
2023/05/18 06:00:32;;;;;;;;;;;12.10;56.20;;;7.09;82.32;95765.16;5012648;28;19917;-51
2023/05/18 06:02:58;;;;;;;;;;;12.30;56.00;;;7.39;82.23;95774.66;4989366;28;21587;-49
2023/05/18 06:05:24;;;;;;;;;;;12.60;55.90;;;7.67;81.40;95773.00;5012031;28;19913;-50
2023/05/18 06:07:50;;;;;;;;;;;12.90;55.80;;;7.85;79.51;95770.09;5013083;28;19909;-52
2023/05/18 06:10:16;;;;;;;;;;;13.30;55.60;;;8.15;78.67;95774.22;5013857;28;19915;-50
2023/05/18 06:12:42;;;;;;;;;;;13.60;55.90;;;8.40;77.01;95771.97;5018868;28;19909;-50
2023/05/18 06:15:08;;;;;;;;;;;13.90;55.00;;;8.52;76.61;95771.81;5013806;28;19913;-49
2023/05/18 06:17:34;;;;;;;;;;;14.10;54.80;;;8.58;75.81;95771.66;5012493;28;20446;-51
2023/05/18 06:20:00;;;;;;;;;;;14.30;54.50;;;8.72;75.18;95773.94;5013410;28;19909;-52
2023/05/18 06:22:26;;;;;;;;;;;14.50;54.20;;;8.80;74.45;95784.91;5013901;28;19924;-53
2023/05/18 06:24:52;;;;;;;;;;;14.70;53.90;;;8.93;73.95;95785.59;5028547;28;19912;-49
2023/05/18 06:27:18;;;;;;;;;;;14.80;53.60;;;9.10;73.97;95794.28;5013604;28;19909;-54
2023/05/18 06:29:44;;;;;;;;;;;15.00;53.40;;;9.23;73.47;95796.56;5011771;28;20326;-50
2023/05/18 06:32:12;;;;;;;;;;;15.30;53.20;;;9.49;73.01;95792.31;5013313;28;20429;-51
2023/05/18 06:34:38;;;;;;;;;;;15.50;52.90;;;9.71;70.92;95788.75;5013520;28;19909;-49
2023/05/18 06:37:04;;;;;;;;;;;15.80;52.60;;;9.84;70.58;95788.34;5020908;28;19917;-49
2023/05/18 06:39:30;;;;;;;;;;;16.10;52.40;;;10.05;70.40;95791.13;5012928;28;20328;-51
2023/05/18 06:41:56;;;;;;;;;;;16.20;52.10;;;9.94;69.66;95788.41;5020942;28;19952;-51
2023/05/18 06:44:21;;;;;;;;;;;16.30;52.00;;;9.88;69.42;95786.75;5017241;28;20363;-50
2023/05/18 06:46:47;;;;;;;;;;;16.20;51.80;;;9.63;71.23;95782.03;5013170;28;19913;-57
2023/05/18 06:49:13;;;;;;;;;;;16.20;51.60;;;9.77;71.19;95790.38;5016160;28;20401;-54
2023/05/18 06:51:41;;;;;;;;;;;16.20;51.60;;;9.86;69.90;95788.88;5008661;28;20020;-50
2023/05/18 06:54:07;;;;;;;;;;;16.20;51.40;;;9.91;69.96;95788.13;5007651;28;20380;-55
2023/05/18 06:56:33;;;;;;;;;;;16.50;51.30;;;10.05;69.45;95801.78;5012787;28;19916;-53
2023/05/18 06:58:59;;;;;;;;;;;16.70;51.00;;;10.36;69.71;95790.28;5011524;28;19915;-56
2023/05/18 07:01:24;;;;;;;;;;;16.80;50.90;;;10.21;68.94;95790.16;5012900;28;19908;-54
2023/05/18 07:03:50;;;;;;;;;;;16.90;50.80;;;10.19;68.72;95794.97;5012725;28;19996;-52
2023/05/18 07:06:16;;;;;;;;;;;17.10;50.70;;;10.14;67.87;95800.25;5010021;28;20391;-55
2023/05/18 07:08:44;;;;;;;;;;;17.20;50.40;;;10.40;67.69;95803.88;5012310;28;19952;-54
2023/05/18 07:11:09;;;;;;;;;;;17.30;50.30;;;10.65;66.93;95811.22;5011778;28;19917;-54
2023/05/18 07:13:35;;;;;;;;;;;17.40;50.00;;;10.78;66.78;95808.09;5012414;28;19962;-53
2023/05/18 07:16:01;;;;;;;;;;;17.50;49.90;;;10.64;66.73;95804.28;5007147;28;19909;-52
2023/05/18 07:18:27;;;;;;;;;;;17.70;49.50;;;11.01;65.43;95809.53;5006976;28;19917;-55
2023/05/18 07:20:52;;;;;;;;;;;17.90;49.30;;;11.35;64.47;95803.75;5012440;28;19931;-49
2023/05/18 07:23:18;;;;;;;;;;;18.10;49.20;;;11.48;63.96;95813.91;5011708;28;20343;-52
2023/05/18 07:25:44;;;;;;;;;;;18.30;48.90;;;11.37;64.16;95814.16;5010379;28;19909;-52
2023/05/18 07:28:10;;;;;;;;;;;18.40;48.70;;;11.43;64.97;95815.75;5011081;28;20662;-52
2023/05/18 07:30:36;;;;;;;;;;;18.70;48.50;;;11.53;63.78;95811.25;5009550;28;19923;-54
2023/05/18 07:33:01;;;;;;;;;;;18.80;48.20;;;11.60;62.93;95815.53;5010225;28;19944;-55
2023/05/18 07:35:27;;;;;;;;;;;18.90;48.10;;;11.67;64.09;95824.06;5009021;28;20446;-50
2023/05/18 07:37:53;;;;;;;;;;;18.90;47.90;;;11.66;63.68;95815.28;5009175;28;20295;-52
2023/05/18 07:40:20;;;;;;;;;;;18.80;47.80;;;11.95;62.53;95814.78;5010497;28;19917;-54
2023/05/18 07:42:46;;;;;;;;;;;19.00;47.70;;;11.81;62.98;95812.63;5009839;28;20298;-50
2023/05/18 07:45:12;;;;;;;;;;;19.00;47.60;;;11.89;62.79;95805.97;5011134;28;19917;-52
2023/05/18 07:47:39;;;;;;;;;;;19.20;47.60;;;12.10;63.00;95804.09;5008882;28;19948;-52
2023/05/18 07:50:05;;;;;;;;;;;19.40;47.50;;;12.15;63.44;95804.06;5011742;28;20367;-53
2023/05/18 07:52:31;;;;;;;;;;;19.40;47.40;;;11.94;61.65;95803.31;5011889;28;20011;-51
2023/05/18 07:54:58;;;;;;;;;;;19.30;47.30;;;11.57;63.92;95807.00;5017266;28;20000;-50
2023/05/18 07:57:24;;;;;;;;;;;19.20;47.10;;;11.86;61.42;95806.50;5011468;28;19975;-50
2023/05/18 07:59:51;;;;;;;;;;;19.20;47.00;;;12.09;61.10;95804.34;5010566;28;20338;-56
2023/05/18 08:02:18;;;;;;;;;;;19.20;47.00;;;12.28;60.94;95805.41;5012130;28;19913;-55
2023/05/18 08:04:45;;;;;;;;;;;19.40;47.00;;;12.26;60.78;95807.56;5011550;28;20019;-49
2023/05/18 08:07:11;;;;;;;;;;;19.50;46.90;;;11.41;63.83;95813.38;5008875;28;19986;-52
2023/05/18 08:09:38;;;;;;;;;;;19.40;46.80;;;11.86;63.88;95813.72;5011272;28;19943;-52
2023/05/18 08:12:05;;;;;;;;;;;19.40;46.80;;;12.26;62.24;95819.03;5016582;28;19995;-51
2023/05/18 08:14:31;;;;;;;;;;;19.30;46.90;;;12.37;60.86;95816.34;5011593;28;19958;-50
2023/05/18 08:16:57;;;;;;;;;;;19.30;47.60;;;12.45;60.95;95821.16;5010240;28;19917;-55
2023/05/18 08:19:23;;;;;;;;;;;19.30;46.90;;;12.68;60.37;95812.53;5011094;28;20283;-53
2023/05/18 08:21:49;;;;;;;;;;;19.50;46.70;;;12.61;61.73;95816.56;5011624;28;19916;-51
2023/05/18 08:24:15;;;;;;;;;;;19.60;46.70;;;12.80;60.07;95819.44;5010438;28;19909;-53
2023/05/18 08:26:41;;;;;;;;;;;19.60;46.80;;;12.72;60.09;95818.94;5011143;28;20003;-50
2023/05/18 08:29:10;;;;;;;;;;;19.80;46.50;;;13.12;59.49;95809.16;5009805;28;20283;-54
2023/05/18 08:31:37;;;;;;;;;;;20.10;46.20;;;12.99;57.75;95809.75;5011210;28;19909;-55
2023/05/18 08:34:04;;;;;;;;;;;20.20;46.10;;;12.85;59.47;95822.09;5011400;28;19916;-50
2023/05/18 08:36:32;;;;;;;;;;;20.30;45.70;;;12.91;58.73;95811.13;5008434;28;19967;-52
2023/05/18 08:38:59;;;;;;;;;;;20.30;45.70;;;12.43;59.64;95816.06;5010800;28;20261;-50
2023/05/18 08:41:54;;;;;;;;;;;20.20;45.50;;;12.47;59.92;95817.13;5010297;28;19962;-52
2023/05/18 08:44:25;;;;;;;;;;;20.30;45.40;;;12.41;59.15;95806.72;5011269;28;19909;-49
2023/05/18 08:46:51;;;;;;;;;;;20.40;45.30;;;12.42;59.88;95824.34;5025878;28;19909;-53
2023/05/18 08:49:20;;;;;;;;;;;20.50;44.80;;;12.39;60.43;95824.91;5010428;28;19913;-53
2023/05/18 08:51:53;;;;;;;;;;;20.40;44.60;;;12.03;61.25;95812.38;5011374;28;19917;-52
2023/05/18 08:54:21;;;;;;;;;;;20.40;44.40;;;12.33;60.27;95805.41;5010482;28;19909;-50
2023/05/18 08:56:48;;;;;;;;;;;20.40;44.60;;;12.51;61.09;95817.41;5011187;28;20387;-50
2023/05/18 08:59:35;;;;;;;;;;;20.40;44.50;;;12.14;60.95;95810.50;5009943;28;19909;-49
2023/05/18 09:02:01;;;;;;;;;;;20.30;44.30;;;12.15;62.20;95809.41;5010769;28;19909;-50
2023/05/18 09:04:27;;;;;;;;;;;20.30;44.40;;;12.21;61.70;95818.22;5011256;28;19975;-49
2023/05/18 09:06:55;;;;;;;;;;;20.30;45.00;;;12.34;61.66;95824.91;5010772;28;20429;-51
2023/05/18 09:09:22;;;;;;;;;;;20.10;44.40;;;12.10;62.21;95820.13;5010648;28;19974;-55
2023/05/18 09:11:50;;;;;;;;;;;20.00;44.50;;;12.00;64.23;95825.44;5021725;28;19908;-50
2023/05/18 09:14:16;;;;;;;;;;;19.80;44.60;;;12.23;62.49;95829.47;5010845;28;19916;-52
2023/05/18 09:16:45;;;;;;;;;;;19.60;44.80;;;12.19;62.12;95828.38;5009526;28;19913;-52
2023/05/18 09:19:10;;;;;;;;;;;19.60;45.00;;;11.54;65.71;95834.19;5011237;28;19913;-51
2023/05/18 09:21:36;;;;;;;;;;;19.40;45.10;;;11.87;64.83;95839.31;5013497;28;19970;-50
2023/05/18 09:24:03;;;;;;;;;;;19.20;45.20;;;11.85;63.97;95844.94;5013554;28;20348;-49
2023/05/18 09:26:29;;;;;;;;;;;19.10;45.50;;;11.93;65.41;95839.06;5014060;28;19967;-50
2023/05/18 09:28:55;;;;;;;;;;;19.00;45.60;;;12.03;63.41;95841.75;5007701;28;19927;-53
2023/05/18 09:31:23;;;;;;;;;;;18.90;46.50;;;11.82;64.72;95843.56;5010214;28;20012;-51
2023/05/18 09:33:50;;;;;;;;;;;18.80;45.90;;;12.01;63.55;95837.75;5009408;28;19991;-51
2023/05/18 09:36:22;;;;;;;;;;;18.70;46.00;;;12.12;62.45;95833.97;5010565;28;20330;-52
2023/05/18 09:38:50;;;;;;;;;;;18.90;46.00;;;12.85;62.42;95833.59;5023785;28;20284;-52
2023/05/18 09:41:17;;;;;;;;;;;19.50;46.30;;;13.42;59.65;95835.00;5027518;28;20735;-50
2023/05/18 09:43:47;;;;;;;;;;;20.40;45.20;;;14.31;57.62;95834.88;5009428;28;19941;-50
2023/05/18 09:46:13;;;;;;;;;;;21.40;44.70;;;14.90;57.24;95830.31;5012742;28;20368;-50
2023/05/18 09:48:51;;;;;;;;;;;22.30;44.30;;;15.33;52.64;95832.22;5013393;28;20000;-57
2023/05/18 09:51:17;;;;;;;;;;;23.10;43.60;;;15.15;53.53;95831.09;5027454;28;19916;-53
2023/05/18 09:53:55;;;;;;;;;;;23.70;42.80;;;15.34;53.69;95829.22;5011934;28;19909;-54
2023/05/18 09:56:23;;;;;;;;;;;24.30;42.10;;;15.26;54.61;95830.69;5002136;28;19924;-51
2023/05/18 09:58:50;;;;;;;;;;;24.50;41.70;;;15.61;52.37;95830.50;5013738;28;19913;-55
2023/05/18 10:01:16;;;;;;;;;;;24.80;41.40;;;15.41;54.84;95829.66;5023535;28;19913;-54
2023/05/18 10:03:44;;;;;;;;;;;24.80;41.10;;;15.63;52.24;95828.31;5013793;28;20422;-52
2023/05/18 10:06:13;;;;;;;;;;;24.70;41.20;;;15.47;54.61;95817.78;5028241;28;19947;-57
2023/05/18 10:08:40;;;;;;;;;;;24.80;41.00;;;15.66;54.79;95828.50;5013274;28;19995;-53
2023/05/18 10:11:06;;;;;;;;;;;24.80;40.60;;;15.50;54.25;95832.50;5026896;28;19909;-54
2023/05/18 10:13:33;;;;;;;;;;;24.60;40.70;;;15.32;53.89;95828.72;5009910;28;19956;-52
2023/05/18 10:16:03;;;;;;;;;;;24.50;40.60;;;15.74;52.90;95827.09;5013912;28;19913;-52
2023/05/18 10:18:37;;;;;;;;;;;24.40;40.60;;;15.81;51.69;95816.78;5012569;28;20372;-52
2023/05/18 10:21:06;;;;;;;;;;;24.40;40.90;;;15.30;53.11;95835.47;5013674;28;19915;-54
2023/05/18 10:23:35;;;;;;;;;;;24.20;40.90;;;14.35;55.71;95827.06;5013065;28;19916;-51
2023/05/18 10:26:06;;;;;;;;;;;24.00;40.60;;;14.67;54.96;95817.69;5013650;28;19917;-51
2023/05/18 10:28:44;;;;;;;;;;;23.90;40.70;;;15.18;54.71;95819.78;5008234;28;19910;-52
2023/05/18 10:31:09;;;;;;;;;;;23.70;40.90;;;15.46;54.00;95816.19;5009748;28;19909;-50
2023/05/18 10:33:37;;;;;;;;;;;23.70;41.10;;;15.28;54.57;95816.97;5013419;28;19915;-52
2023/05/18 10:36:04;;;;;;;;;;;23.60;41.00;;;14.62;55.62;95820.41;5004426;28;19917;-50
2023/05/18 10:38:31;;;;;;;;;;;23.60;40.90;;;15.07;54.39;95816.41;5012763;28;19913;-52
2023/05/18 10:40:59;;;;;;;;;;;23.50;40.90;;;15.12;54.03;95818.25;5012416;28;19913;-54
2023/05/18 10:43:27;;;;;;;;;;;23.30;40.90;;;15.07;55.11;95815.63;5024919;28;19916;-52
2023/05/18 10:45:56;;;;;;;;;;;23.30;41.00;;;14.96;56.40;95810.38;5013036;28;19913;-53
2023/05/18 10:48:23;;;;;;;;;;;23.30;41.00;;;15.20;54.46;95815.72;5014338;28;19956;-51
2023/05/18 10:50:52;;;;;;;;;;;23.40;41.00;;;15.39;53.57;95820.34;5013237;28;19916;-48
2023/05/18 10:53:30;;;;;;;;;;;23.60;40.90;;;14.85;55.66;95814.25;5010747;28;19921;-48
2023/05/18 10:55:56;;;;;;;;;;;23.80;40.70;;;15.13;55.14;95817.94;5012918;28;19913;-52
2023/05/18 10:58:26;;;;;;;;;;;23.90;40.70;;;15.07;56.51;95815.63;5012443;28;19963;-49
2023/05/18 11:01:03;;;;;;;;;;;23.90;40.70;;;15.43;53.01;95810.59;5026885;28;19909;-48
2023/05/18 11:03:32;;;;;;;;;;;23.80;40.60;;;15.73;52.73;95815.56;5028018;28;20031;-49
2023/05/18 11:06:09;;;;;;;;;;;23.80;40.70;;;15.56;53.03;95817.13;5013225;28;19909;-53
2023/05/18 11:08:55;;;;;;;;;;;23.70;40.70;;;15.48;54.79;95811.34;5007532;28;20003;-47
2023/05/18 11:11:27;;;;;;;;;;;23.70;40.80;;;15.55;52.99;95818.22;5011433;28;19916;-50
2023/05/18 11:13:53;;;;;;;;;;;23.70;40.80;;;15.28;53.23;95811.59;5012572;28;19909;-51
2023/05/18 11:16:19;;;;;;;;;;;23.70;40.60;;;15.17;51.38;95818.19;5023526;28;21385;-47
2023/05/18 11:18:48;;;;;;;;;;;23.60;40.40;;;15.60;51.10;95818.13;5010837;28;19913;-48
2023/05/18 11:21:23;;;;;;;;;;;23.80;40.30;;;15.94;50.38;95823.31;5012507;28;19958;-49
2023/05/18 11:24:20;;;;;;;;;;;24.00;40.30;;;16.20;52.18;95823.69;5017786;28;19909;-48
2023/05/18 11:26:53;;;;;;;;;;;24.20;40.00;;;16.58;50.72;95821.72;5014539;28;19920;-49
2023/05/18 11:29:21;;;;;;;;;;;24.50;40.00;;;16.63;51.04;95826.19;5011252;28;20012;-50